sensor_id;sensor_type;location;lat;lon;timestamp;P1;durP1;ratioP1;P2;durP2;ratioP2
29352;SDS011;16344;50.364;8.944;2022-12-20T00:01:28;120.97;;;48.95;;
29352;SDS011;16344;50.364;8.944;2022-12-20T00:03:56;120.00;;;48.60;;
29352;SDS011;16344;50.364;8.944;2022-12-20T00:06:26;124.10;;;49.53;;
29352;SDS011;16344;50.364;8.944;2022-12-20T00:08:54;118.95;;;47.95;;
29352;SDS011;16344;50.364;8.944;2022-12-20T00:11:21;124.90;;;50.65;;
29352;SDS011;16344;50.364;8.944;2022-12-20T00:13:47;124.63;;;49.55;;
29352;SDS011;16344;50.364;8.944;2022-12-20T00:16:14;122.45;;;48.45;;
29352;SDS011;16344;50.364;8.944;2022-12-20T00:18:41;119.07;;;50.40;;
29352;SDS011;16344;50.364;8.944;2022-12-20T00:21:08;124.05;;;49.33;;
29352;SDS011;16344;50.364;8.944;2022-12-20T00:23:36;128.07;;;52.03;;
29352;SDS011;16344;50.364;8.944;2022-12-20T00:28:32;132.75;;;50.33;;
29352;SDS011;16344;50.364;8.944;2022-12-20T00:30:59;125.03;;;52.35;;
29352;SDS011;16344;50.364;8.944;2022-12-20T00:33:25;131.25;;;51.60;;
29352;SDS011;16344;50.364;8.944;2022-12-20T00:35:53;115.00;;;50.00;;
29352;SDS011;16344;50.364;8.944;2022-12-20T00:38:19;125.88;;;52.97;;
29352;SDS011;16344;50.364;8.944;2022-12-20T00:40:45;122.30;;;51.08;;
29352;SDS011;16344;50.364;8.944;2022-12-20T00:43:10;126.43;;;51.85;;
29352;SDS011;16344;50.364;8.944;2022-12-20T00:45:36;124.55;;;50.17;;
29352;SDS011;16344;50.364;8.944;2022-12-20T00:48:02;143.50;;;58.15;;
29352;SDS011;16344;50.364;8.944;2022-12-20T00:50:28;140.85;;;55.40;;
29352;SDS011;16344;50.364;8.944;2022-12-20T00:52:53;140.25;;;57.25;;
29352;SDS011;16344;50.364;8.944;2022-12-20T00:55:19;124.43;;;53.40;;
29352;SDS011;16344;50.364;8.944;2022-12-20T00:57:44;138.75;;;58.53;;
29352;SDS011;16344;50.364;8.944;2022-12-20T01:00:10;139.93;;;51.28;;
29352;SDS011;16344;50.364;8.944;2022-12-20T01:02:36;128.50;;;48.65;;
29352;SDS011;16344;50.364;8.944;2022-12-20T01:05:01;106.80;;;45.90;;
29352;SDS011;16344;50.364;8.944;2022-12-20T01:07:27;116.95;;;46.33;;
29352;SDS011;16344;50.364;8.944;2022-12-20T01:09:53;118.05;;;47.08;;
29352;SDS011;16344;50.364;8.944;2022-12-20T01:12:18;110.40;;;46.05;;
29352;SDS011;16344;50.364;8.944;2022-12-20T01:14:44;115.93;;;47.30;;
29352;SDS011;16344;50.364;8.944;2022-12-20T01:17:09;123.30;;;51.95;;
29352;SDS011;16344;50.364;8.944;2022-12-20T01:19:35;138.75;;;52.75;;
29352;SDS011;16344;50.364;8.944;2022-12-20T01:22:00;127.90;;;51.50;;
29352;SDS011;16344;50.364;8.944;2022-12-20T01:24:26;110.72;;;48.10;;
29352;SDS011;16344;50.364;8.944;2022-12-20T01:26:51;114.55;;;48.28;;
29352;SDS011;16344;50.364;8.944;2022-12-20T01:29:17;130.32;;;50.88;;
29352;SDS011;16344;50.364;8.944;2022-12-20T01:31:42;110.13;;;47.85;;
29352;SDS011;16344;50.364;8.944;2022-12-20T01:34:08;126.03;;;49.00;;
29352;SDS011;16344;50.364;8.944;2022-12-20T01:36:35;130.15;;;52.85;;
29352;SDS011;16344;50.364;8.944;2022-12-20T01:39:04;116.00;;;48.88;;
29352;SDS011;16344;50.364;8.944;2022-12-20T01:41:36;113.18;;;48.25;;
29352;SDS011;16344;50.364;8.944;2022-12-20T01:44:49;117.82;;;48.22;;
29352;SDS011;16344;50.364;8.944;2022-12-20T01:46:51;104.63;;;45.85;;
29352;SDS011;16344;50.364;8.944;2022-12-20T01:49:19;104.32;;;43.47;;
29352;SDS011;16344;50.364;8.944;2022-12-20T01:51:59;117.82;;;45.78;;
29352;SDS011;16344;50.364;8.944;2022-12-20T01:54:30;125.68;;;47.13;;
29352;SDS011;16344;50.364;8.944;2022-12-20T01:57:01;116.07;;;49.40;;
29352;SDS011;16344;50.364;8.944;2022-12-20T01:59:30;110.15;;;45.90;;
29352;SDS011;16344;50.364;8.944;2022-12-20T02:02:00;115.45;;;47.78;;
29352;SDS011;16344;50.364;8.944;2022-12-20T02:04:28;119.15;;;48.72;;
29352;SDS011;16344;50.364;8.944;2022-12-20T02:06:54;116.43;;;50.58;;
29352;SDS011;16344;50.364;8.944;2022-12-20T02:09:21;118.80;;;48.30;;
29352;SDS011;16344;50.364;8.944;2022-12-20T02:11:49;110.68;;;47.45;;
29352;SDS011;16344;50.364;8.944;2022-12-20T02:19:59;109.97;;;46.28;;
29352;SDS011;16344;50.364;8.944;2022-12-20T02:27:51;120.25;;;48.22;;
29352;SDS011;16344;50.364;8.944;2022-12-20T02:30:25;113.65;;;45.92;;
29352;SDS011;16344;50.364;8.944;2022-12-20T02:33:07;109.40;;;46.33;;
29352;SDS011;16344;50.364;8.944;2022-12-20T02:35:36;118.55;;;47.97;;
29352;SDS011;16344;50.364;8.944;2022-12-20T02:38:22;124.45;;;49.33;;
29352;SDS011;16344;50.364;8.944;2022-12-20T02:41:04;125.75;;;49.78;;
29352;SDS011;16344;50.364;8.944;2022-12-20T02:43:41;115.93;;;49.05;;
29352;SDS011;16344;50.364;8.944;2022-12-20T02:46:28;108.35;;;44.97;;
29352;SDS011;16344;50.364;8.944;2022-12-20T02:48:57;121.88;;;48.67;;
29352;SDS011;16344;50.364;8.944;2022-12-20T02:51:26;119.07;;;51.85;;
29352;SDS011;16344;50.364;8.944;2022-12-20T02:53:54;114.95;;;46.38;;
29352;SDS011;16344;50.364;8.944;2022-12-20T02:56:22;118.55;;;46.30;;
29352;SDS011;16344;50.364;8.944;2022-12-20T02:59:01;115.47;;;47.03;;
29352;SDS011;16344;50.364;8.944;2022-12-20T03:01:54;109.53;;;45.13;;
29352;SDS011;16344;50.364;8.944;2022-12-20T03:04:22;126.15;;;45.97;;
29352;SDS011;16344;50.364;8.944;2022-12-20T03:07:00;116.00;;;45.03;;
29352;SDS011;16344;50.364;8.944;2022-12-20T03:09:31;125.03;;;48.20;;
29352;SDS011;16344;50.364;8.944;2022-12-20T03:11:59;116.43;;;45.50;;
29352;SDS011;16344;50.364;8.944;2022-12-20T03:14:25;140.02;;;49.38;;
29352;SDS011;16344;50.364;8.944;2022-12-20T03:16:51;115.45;;;45.25;;
29352;SDS011;16344;50.364;8.944;2022-12-20T03:19:16;122.20;;;47.42;;
29352;SDS011;16344;50.364;8.944;2022-12-20T03:21:42;126.60;;;46.85;;
29352;SDS011;16344;50.364;8.944;2022-12-20T03:24:08;118.57;;;45.13;;
29352;SDS011;16344;50.364;8.944;2022-12-20T03:26:35;113.97;;;47.10;;
29352;SDS011;16344;50.364;8.944;2022-12-20T03:29:01;119.63;;;48.80;;
29352;SDS011;16344;50.364;8.944;2022-12-20T03:31:27;120.88;;;48.67;;
29352;SDS011;16344;50.364;8.944;2022-12-20T03:33:53;128.57;;;48.75;;
29352;SDS011;16344;50.364;8.944;2022-12-20T03:36:19;119.88;;;47.85;;
29352;SDS011;16344;50.364;8.944;2022-12-20T03:38:47;123.47;;;44.00;;
29352;SDS011;16344;50.364;8.944;2022-12-20T03:41:13;112.63;;;43.95;;
29352;SDS011;16344;50.364;8.944;2022-12-20T03:43:39;112.63;;;44.65;;
29352;SDS011;16344;50.364;8.944;2022-12-20T03:46:04;115.78;;;45.58;;
29352;SDS011;16344;50.364;8.944;2022-12-20T03:48:30;109.63;;;44.28;;
29352;SDS011;16344;50.364;8.944;2022-12-20T03:50:55;123.15;;;48.67;;
29352;SDS011;16344;50.364;8.944;2022-12-20T03:53:21;120.15;;;47.13;;
29352;SDS011;16344;50.364;8.944;2022-12-20T03:55:46;109.22;;;45.45;;
29352;SDS011;16344;50.364;8.944;2022-12-20T03:58:12;121.45;;;45.28;;
29352;SDS011;16344;50.364;8.944;2022-12-20T04:00:37;112.10;;;46.50;;
29352;SDS011;16344;50.364;8.944;2022-12-20T04:03:03;118.60;;;48.15;;
29352;SDS011;16344;50.364;8.944;2022-12-20T04:05:28;114.90;;;47.78;;
29352;SDS011;16344;50.364;8.944;2022-12-20T04:07:54;113.38;;;48.67;;
29352;SDS011;16344;50.364;8.944;2022-12-20T04:10:19;112.03;;;47.22;;
29352;SDS011;16344;50.364;8.944;2022-12-20T04:12:45;117.93;;;47.03;;
29352;SDS011;16344;50.364;8.944;2022-12-20T04:15:10;108.40;;;44.40;;
29352;SDS011;16344;50.364;8.944;2022-12-20T04:17:36;98.30;;;42.85;;
29352;SDS011;16344;50.364;8.944;2022-12-20T04:20:01;119.90;;;46.78;;
29352;SDS011;16344;50.364;8.944;2022-12-20T04:22:49;118.13;;;47.35;;
29352;SDS011;16344;50.364;8.944;2022-12-20T04:27:42;139.68;;;46.55;;
29352;SDS011;16344;50.364;8.944;2022-12-20T04:30:08;120.90;;;47.47;;
29352;SDS011;16344;50.364;8.944;2022-12-20T04:32:35;120.80;;;47.78;;
29352;SDS011;16344;50.364;8.944;2022-12-20T04:35:00;113.28;;;47.67;;
29352;SDS011;16344;50.364;8.944;2022-12-20T04:37:28;116.22;;;48.15;;
29352;SDS011;16344;50.364;8.944;2022-12-20T04:39:54;107.93;;;46.35;;
29352;SDS011;16344;50.364;8.944;2022-12-20T04:42:20;113.88;;;48.47;;
29352;SDS011;16344;50.364;8.944;2022-12-20T04:44:46;122.45;;;48.10;;
29352;SDS011;16344;50.364;8.944;2022-12-20T04:47:12;125.95;;;53.05;;
29352;SDS011;16344;50.364;8.944;2022-12-20T04:49:37;116.95;;;47.85;;
29352;SDS011;16344;50.364;8.944;2022-12-20T04:52:03;116.93;;;47.78;;
29352;SDS011;16344;50.364;8.944;2022-12-20T04:54:47;114.13;;;47.72;;
29352;SDS011;16344;50.364;8.944;2022-12-20T04:57:12;117.45;;;46.92;;
29352;SDS011;16344;50.364;8.944;2022-12-20T04:59:38;119.20;;;49.95;;
29352;SDS011;16344;50.364;8.944;2022-12-20T05:02:03;121.60;;;47.70;;
29352;SDS011;16344;50.364;8.944;2022-12-20T05:04:29;121.57;;;47.67;;
29352;SDS011;16344;50.364;8.944;2022-12-20T05:06:55;133.07;;;48.97;;
29352;SDS011;16344;50.364;8.944;2022-12-20T05:09:20;117.18;;;47.97;;
29352;SDS011;16344;50.364;8.944;2022-12-20T05:11:46;113.00;;;49.67;;
29352;SDS011;16344;50.364;8.944;2022-12-20T05:14:11;122.07;;;49.58;;
29352;SDS011;16344;50.364;8.944;2022-12-20T05:16:37;116.10;;;47.15;;
29352;SDS011;16344;50.364;8.944;2022-12-20T05:19:02;114.30;;;47.22;;
29352;SDS011;16344;50.364;8.944;2022-12-20T05:21:28;117.05;;;46.22;;
29352;SDS011;16344;50.364;8.944;2022-12-20T05:24:13;119.90;;;46.28;;
29352;SDS011;16344;50.364;8.944;2022-12-20T05:26:57;114.93;;;48.67;;
29352;SDS011;16344;50.364;8.944;2022-12-20T05:29:23;124.18;;;51.25;;
29352;SDS011;16344;50.364;8.944;2022-12-20T05:31:48;111.22;;;47.00;;
29352;SDS011;16344;50.364;8.944;2022-12-20T05:34:14;118.22;;;47.15;;
29352;SDS011;16344;50.364;8.944;2022-12-20T05:36:39;117.70;;;46.47;;
29352;SDS011;16344;50.364;8.944;2022-12-20T05:39:05;108.10;;;45.03;;
29352;SDS011;16344;50.364;8.944;2022-12-20T05:41:30;109.45;;;44.72;;
29352;SDS011;16344;50.364;8.944;2022-12-20T05:43:56;106.85;;;46.95;;
29352;SDS011;16344;50.364;8.944;2022-12-20T05:46:22;118.05;;;47.13;;
29352;SDS011;16344;50.364;8.944;2022-12-20T05:48:48;111.72;;;48.00;;
29352;SDS011;16344;50.364;8.944;2022-12-20T05:51:13;111.90;;;43.78;;
29352;SDS011;16344;50.364;8.944;2022-12-20T05:53:39;104.47;;;44.40;;
29352;SDS011;16344;50.364;8.944;2022-12-20T05:56:04;109.22;;;47.78;;
29352;SDS011;16344;50.364;8.944;2022-12-20T05:58:30;121.20;;;54.38;;
29352;SDS011;16344;50.364;8.944;2022-12-20T06:00:58;176.82;;;84.13;;
29352;SDS011;16344;50.364;8.944;2022-12-20T06:03:25;147.23;;;62.03;;
29352;SDS011;16344;50.364;8.944;2022-12-20T06:05:50;103.07;;;46.05;;
29352;SDS011;16344;50.364;8.944;2022-12-20T06:08:16;97.93;;;40.40;;
29352;SDS011;16344;50.364;8.944;2022-12-20T06:10:41;99.93;;;41.85;;
29352;SDS011;16344;50.364;8.944;2022-12-20T06:13:07;96.47;;;42.70;;
29352;SDS011;16344;50.364;8.944;2022-12-20T06:15:34;98.93;;;43.30;;
29352;SDS011;16344;50.364;8.944;2022-12-20T06:17:59;110.43;;;44.60;;
29352;SDS011;16344;50.364;8.944;2022-12-20T06:20:25;103.65;;;43.05;;
29352;SDS011;16344;50.364;8.944;2022-12-20T06:22:50;103.28;;;43.80;;
29352;SDS011;16344;50.364;8.944;2022-12-20T06:25:16;113.60;;;45.42;;
29352;SDS011;16344;50.364;8.944;2022-12-20T06:27:42;108.28;;;45.15;;
29352;SDS011;16344;50.364;8.944;2022-12-20T06:30:08;105.53;;;44.40;;
29352;SDS011;16344;50.364;8.944;2022-12-20T06:32:34;113.40;;;44.75;;
29352;SDS011;16344;50.364;8.944;2022-12-20T06:35:00;120.32;;;47.22;;
29352;SDS011;16344;50.364;8.944;2022-12-20T06:37:26;111.30;;;47.00;;
29352;SDS011;16344;50.364;8.944;2022-12-20T06:39:51;106.65;;;45.17;;
29352;SDS011;16344;50.364;8.944;2022-12-20T06:42:17;111.63;;;45.60;;
29352;SDS011;16344;50.364;8.944;2022-12-20T06:44:42;102.65;;;46.78;;
29352;SDS011;16344;50.364;8.944;2022-12-20T06:47:08;122.35;;;47.38;;
29352;SDS011;16344;50.364;8.944;2022-12-20T06:49:34;115.55;;;46.70;;
29352;SDS011;16344;50.364;8.944;2022-12-20T06:51:59;116.05;;;45.33;;
29352;SDS011;16344;50.364;8.944;2022-12-20T06:54:25;114.63;;;47.60;;
29352;SDS011;16344;50.364;8.944;2022-12-20T06:56:50;111.93;;;44.90;;
29352;SDS011;16344;50.364;8.944;2022-12-20T06:59:16;105.32;;;44.38;;
29352;SDS011;16344;50.364;8.944;2022-12-20T07:01:42;127.55;;;43.63;;
29352;SDS011;16344;50.364;8.944;2022-12-20T07:04:08;119.38;;;47.75;;
29352;SDS011;16344;50.364;8.944;2022-12-20T07:06:34;113.15;;;42.70;;
29352;SDS011;16344;50.364;8.944;2022-12-20T07:08:59;97.55;;;38.55;;
29352;SDS011;16344;50.364;8.944;2022-12-20T07:11:25;102.95;;;42.42;;
29352;SDS011;16344;50.364;8.944;2022-12-20T07:13:54;92.40;;;37.90;;
29352;SDS011;16344;50.364;8.944;2022-12-20T07:16:20;100.22;;;42.13;;
29352;SDS011;16344;50.364;8.944;2022-12-20T07:18:49;103.38;;;38.08;;
29352;SDS011;16344;50.364;8.944;2022-12-20T07:23:45;87.85;;;36.88;;
29352;SDS011;16344;50.364;8.944;2022-12-20T07:26:11;91.88;;;37.40;;
29352;SDS011;16344;50.364;8.944;2022-12-20T07:28:37;97.20;;;41.05;;
29352;SDS011;16344;50.364;8.944;2022-12-20T07:31:03;173.32;;;80.60;;
29352;SDS011;16344;50.364;8.944;2022-12-20T07:33:30;145.35;;;65.30;;
29352;SDS011;16344;50.364;8.944;2022-12-20T07:36:03;151.65;;;64.47;;
29352;SDS011;16344;50.364;8.944;2022-12-20T07:38:30;403.88;;;168.20;;
29352;SDS011;16344;50.364;8.944;2022-12-20T07:40:56;151.80;;;64.68;;
29352;SDS011;16344;50.364;8.944;2022-12-20T07:43:22;319.35;;;130.13;;
29352;SDS011;16344;50.364;8.944;2022-12-20T07:45:47;199.35;;;83.75;;
29352;SDS011;16344;50.364;8.944;2022-12-20T07:48:17;146.70;;;59.72;;
29352;SDS011;16344;50.364;8.944;2022-12-20T07:50:42;103.95;;;49.05;;
29352;SDS011;16344;50.364;8.944;2022-12-20T07:53:08;131.98;;;56.42;;
29352;SDS011;16344;50.364;8.944;2022-12-20T07:55:35;168.68;;;70.03;;
29352;SDS011;16344;50.364;8.944;2022-12-20T07:58:03;129.93;;;52.67;;
29352;SDS011;16344;50.364;8.944;2022-12-20T08:00:31;98.82;;;41.83;;
29352;SDS011;16344;50.364;8.944;2022-12-20T08:02:58;104.10;;;42.05;;
29352;SDS011;16344;50.364;8.944;2022-12-20T08:05:41;90.38;;;38.42;;
29352;SDS011;16344;50.364;8.944;2022-12-20T08:08:11;96.05;;;38.65;;
29352;SDS011;16344;50.364;8.944;2022-12-20T08:10:37;92.20;;;37.45;;
29352;SDS011;16344;50.364;8.944;2022-12-20T08:13:04;97.22;;;37.92;;
29352;SDS011;16344;50.364;8.944;2022-12-20T08:15:31;108.70;;;45.92;;
29352;SDS011;16344;50.364;8.944;2022-12-20T08:17:59;84.88;;;36.80;;
29352;SDS011;16344;50.364;8.944;2022-12-20T08:20:24;90.35;;;35.17;;
29352;SDS011;16344;50.364;8.944;2022-12-20T08:22:50;83.53;;;34.05;;
29352;SDS011;16344;50.364;8.944;2022-12-20T08:25:16;84.18;;;38.70;;
29352;SDS011;16344;50.364;8.944;2022-12-20T08:27:41;99.13;;;39.40;;
29352;SDS011;16344;50.364;8.944;2022-12-20T08:30:07;83.70;;;37.00;;
29352;SDS011;16344;50.364;8.944;2022-12-20T08:32:34;98.57;;;38.25;;
29352;SDS011;16344;50.364;8.944;2022-12-20T08:35:00;77.18;;;33.10;;
29352;SDS011;16344;50.364;8.944;2022-12-20T08:37:26;101.55;;;42.45;;
29352;SDS011;16344;50.364;8.944;2022-12-20T08:39:51;169.25;;;65.97;;
29352;SDS011;16344;50.364;8.944;2022-12-20T08:42:17;138.25;;;57.53;;
29352;SDS011;16344;50.364;8.944;2022-12-20T08:44:43;72.45;;;33.63;;
29352;SDS011;16344;50.364;8.944;2022-12-20T08:47:08;69.80;;;32.90;;
29352;SDS011;16344;50.364;8.944;2022-12-20T08:49:34;69.75;;;32.88;;
29352;SDS011;16344;50.364;8.944;2022-12-20T08:52:00;78.47;;;33.33;;
29352;SDS011;16344;50.364;8.944;2022-12-20T08:54:25;67.50;;;29.55;;
29352;SDS011;16344;50.364;8.944;2022-12-20T08:56:51;68.10;;;32.50;;
29352;SDS011;16344;50.364;8.944;2022-12-20T08:59:16;55.25;;;26.92;;
29352;SDS011;16344;50.364;8.944;2022-12-20T09:01:42;58.75;;;26.27;;
29352;SDS011;16344;50.364;8.944;2022-12-20T09:04:09;55.50;;;25.45;;
29352;SDS011;16344;50.364;8.944;2022-12-20T09:06:35;55.42;;;25.00;;
29352;SDS011;16344;50.364;8.944;2022-12-20T09:09:01;56.25;;;25.75;;
29352;SDS011;16344;50.364;8.944;2022-12-20T09:11:27;63.95;;;29.55;;
29352;SDS011;16344;50.364;8.944;2022-12-20T09:13:53;84.70;;;36.58;;
29352;SDS011;16344;50.364;8.944;2022-12-20T09:16:22;71.78;;;31.90;;
29352;SDS011;16344;50.364;8.944;2022-12-20T09:18:50;57.90;;;27.50;;
29352;SDS011;16344;50.364;8.944;2022-12-20T09:21:17;58.50;;;27.35;;
29352;SDS011;16344;50.364;8.944;2022-12-20T09:23:43;57.05;;;27.27;;
29352;SDS011;16344;50.364;8.944;2022-12-20T09:26:10;59.13;;;26.80;;
29352;SDS011;16344;50.364;8.944;2022-12-20T09:28:36;52.88;;;26.38;;
29352;SDS011;16344;50.364;8.944;2022-12-20T09:31:03;67.57;;;33.72;;
29352;SDS011;16344;50.364;8.944;2022-12-20T09:33:31;60.97;;;30.00;;
29352;SDS011;16344;50.364;8.944;2022-12-20T09:35:57;71.80;;;29.77;;
29352;SDS011;16344;50.364;8.944;2022-12-20T09:38:24;56.88;;;26.48;;
29352;SDS011;16344;50.364;8.944;2022-12-20T09:40:50;77.80;;;30.77;;
29352;SDS011;16344;50.364;8.944;2022-12-20T09:43:18;61.35;;;28.60;;
29352;SDS011;16344;50.364;8.944;2022-12-20T09:45:45;68.70;;;29.52;;
29352;SDS011;16344;50.364;8.944;2022-12-20T09:48:16;54.05;;;26.80;;
29352;SDS011;16344;50.364;8.944;2022-12-20T09:54:18;50.92;;;27.00;;
29352;SDS011;16344;50.364;8.944;2022-12-20T09:56:25;61.85;;;29.60;;
29352;SDS011;16344;50.364;8.944;2022-12-20T09:59:04;65.75;;;29.10;;
29352;SDS011;16344;50.364;8.944;2022-12-20T10:01:35;63.15;;;29.55;;
29352;SDS011;16344;50.364;8.944;2022-12-20T10:04:02;73.38;;;30.77;;
29352;SDS011;16344;50.364;8.944;2022-12-20T10:15:13;66.55;;;27.92;;
29352;SDS011;16344;50.364;8.944;2022-12-20T10:26:15;56.58;;;26.85;;
29352;SDS011;16344;50.364;8.944;2022-12-20T10:28:41;60.85;;;28.30;;
29352;SDS011;16344;50.364;8.944;2022-12-20T10:31:09;61.55;;;27.55;;
29352;SDS011;16344;50.364;8.944;2022-12-20T10:33:38;55.88;;;27.02;;
29352;SDS011;16344;50.364;8.944;2022-12-20T10:36:26;63.65;;;27.67;;
29352;SDS011;16344;50.364;8.944;2022-12-20T10:38:55;62.25;;;27.25;;
29352;SDS011;16344;50.364;8.944;2022-12-20T10:41:24;61.75;;;29.33;;
29352;SDS011;16344;50.364;8.944;2022-12-20T10:44:34;71.05;;;31.92;;
29352;SDS011;16344;50.364;8.944;2022-12-20T10:46:55;61.00;;;28.67;;
29352;SDS011;16344;50.364;8.944;2022-12-20T10:52:00;60.30;;;28.52;;
29352;SDS011;16344;50.364;8.944;2022-12-20T10:54:35;65.70;;;30.10;;
29352;SDS011;16344;50.364;8.944;2022-12-20T10:57:03;60.47;;;28.92;;
29352;SDS011;16344;50.364;8.944;2022-12-20T10:59:41;63.03;;;30.05;;
29352;SDS011;16344;50.364;8.944;2022-12-20T11:02:30;61.90;;;29.52;;
29352;SDS011;16344;50.364;8.944;2022-12-20T11:07:29;72.15;;;32.22;;
29352;SDS011;16344;50.364;8.944;2022-12-20T11:09:57;68.97;;;33.92;;
29352;SDS011;16344;50.364;8.944;2022-12-20T11:12:24;69.43;;;33.17;;
29352;SDS011;16344;50.364;8.944;2022-12-20T11:14:50;65.57;;;31.98;;
29352;SDS011;16344;50.364;8.944;2022-12-20T11:18:07;79.07;;;33.70;;
29352;SDS011;16344;50.364;8.944;2022-12-20T11:29:05;80.75;;;35.22;;
29352;SDS011;16344;50.364;8.944;2022-12-20T11:38:06;80.25;;;36.63;;
29352;SDS011;16344;50.364;8.944;2022-12-20T11:40:37;64.63;;;32.58;;
29352;SDS011;16344;50.364;8.944;2022-12-20T11:46:46;57.67;;;27.33;;
29352;SDS011;16344;50.364;8.944;2022-12-20T11:52:03;54.55;;;26.20;;
29352;SDS011;16344;50.364;8.944;2022-12-20T11:54:42;56.73;;;27.47;;
29352;SDS011;16344;50.364;8.944;2022-12-20T11:57:12;63.80;;;28.27;;
29352;SDS011;16344;50.364;8.944;2022-12-20T11:59:52;59.35;;;26.63;;
29352;SDS011;16344;50.364;8.944;2022-12-20T12:04:53;61.75;;;27.50;;
29352;SDS011;16344;50.364;8.944;2022-12-20T12:07:29;60.90;;;27.55;;
29352;SDS011;16344;50.364;8.944;2022-12-20T12:10:01;61.08;;;28.23;;
29352;SDS011;16344;50.364;8.944;2022-12-20T12:12:44;62.03;;;29.15;;
29352;SDS011;16344;50.364;8.944;2022-12-20T12:15:17;63.67;;;31.65;;
29352;SDS011;16344;50.364;8.944;2022-12-20T12:22:50;89.38;;;41.22;;
29352;SDS011;16344;50.364;8.944;2022-12-20T12:25:21;90.10;;;38.43;;
29352;SDS011;16344;50.364;8.944;2022-12-20T12:27:47;69.63;;;34.38;;
29352;SDS011;16344;50.364;8.944;2022-12-20T12:30:13;66.47;;;32.28;;
29352;SDS011;16344;50.364;8.944;2022-12-20T12:33:14;73.70;;;33.50;;
29352;SDS011;16344;50.364;8.944;2022-12-20T12:38:24;72.05;;;29.42;;
29352;SDS011;16344;50.364;8.944;2022-12-20T12:46:25;60.67;;;27.33;;
29352;SDS011;16344;50.364;8.944;2022-12-20T12:48:59;67.35;;;30.83;;
29352;SDS011;16344;50.364;8.944;2022-12-20T12:51:31;65.90;;;30.35;;
29352;SDS011;16344;50.364;8.944;2022-12-20T12:56:37;57.80;;;28.35;;
29352;SDS011;16344;50.364;8.944;2022-12-20T13:01:48;60.50;;;28.63;;
29352;SDS011;16344;50.364;8.944;2022-12-20T13:11:50;57.80;;;27.35;;
29352;SDS011;16344;50.364;8.944;2022-12-20T13:16:45;69.00;;;32.92;;
29352;SDS011;16344;50.364;8.944;2022-12-20T13:21:52;76.00;;;38.28;;
29352;SDS011;16344;50.364;8.944;2022-12-20T13:24:34;75.22;;;35.88;;
29352;SDS011;16344;50.364;8.944;2022-12-20T13:29:50;78.88;;;35.17;;
29352;SDS011;16344;50.364;8.944;2022-12-20T13:40:18;75.07;;;35.92;;
29352;SDS011;16344;50.364;8.944;2022-12-20T13:42:55;78.47;;;36.65;;
29352;SDS011;16344;50.364;8.944;2022-12-20T13:45:22;72.15;;;35.33;;
29352;SDS011;16344;50.364;8.944;2022-12-20T13:47:52;75.43;;;35.13;;
29352;SDS011;16344;50.364;8.944;2022-12-20T13:50:23;71.30;;;33.33;;
29352;SDS011;16344;50.364;8.944;2022-12-20T13:52:52;66.50;;;31.02;;
29352;SDS011;16344;50.364;8.944;2022-12-20T13:55:52;67.00;;;31.90;;
29352;SDS011;16344;50.364;8.944;2022-12-20T13:58:32;65.90;;;32.42;;
29352;SDS011;16344;50.364;8.944;2022-12-20T14:01:03;74.20;;;31.95;;
29352;SDS011;16344;50.364;8.944;2022-12-20T14:03:31;65.53;;;30.27;;
29352;SDS011;16344;50.364;8.944;2022-12-20T14:08:35;57.35;;;28.27;;
29352;SDS011;16344;50.364;8.944;2022-12-20T14:11:10;61.95;;;26.02;;
29352;SDS011;16344;50.364;8.944;2022-12-20T14:13:37;58.67;;;25.60;;
29352;SDS011;16344;50.364;8.944;2022-12-20T14:16:13;54.42;;;26.75;;
29352;SDS011;16344;50.364;8.944;2022-12-20T14:18:41;62.58;;;27.67;;
29352;SDS011;16344;50.364;8.944;2022-12-20T14:21:12;62.95;;;28.13;;
29352;SDS011;16344;50.364;8.944;2022-12-20T14:23:39;54.95;;;26.83;;
29352;SDS011;16344;50.364;8.944;2022-12-20T14:26:12;87.30;;;37.58;;
29352;SDS011;16344;50.364;8.944;2022-12-20T14:28:41;86.25;;;35.85;;
29352;SDS011;16344;50.364;8.944;2022-12-20T14:31:22;62.40;;;30.08;;
29352;SDS011;16344;50.364;8.944;2022-12-20T14:33:49;63.17;;;30.27;;
29352;SDS011;16344;50.364;8.944;2022-12-20T14:38:45;64.47;;;30.95;;
29352;SDS011;16344;50.364;8.944;2022-12-20T14:41:28;76.75;;;34.30;;
29352;SDS011;16344;50.364;8.944;2022-12-20T14:44:03;67.57;;;29.85;;
29352;SDS011;16344;50.364;8.944;2022-12-20T14:46:31;61.45;;;26.15;;
29352;SDS011;16344;50.364;8.944;2022-12-20T14:49:13;59.97;;;28.25;;
29352;SDS011;16344;50.364;8.944;2022-12-20T14:57:49;66.57;;;35.45;;
29352;SDS011;16344;50.364;8.944;2022-12-20T15:08:13;79.63;;;37.38;;
29352;SDS011;16344;50.364;8.944;2022-12-20T15:13:28;56.72;;;29.55;;
29352;SDS011;16344;50.364;8.944;2022-12-20T15:15:59;64.57;;;28.95;;
29352;SDS011;16344;50.364;8.944;2022-12-20T15:18:28;57.47;;;28.63;;
29352;SDS011;16344;50.364;8.944;2022-12-20T15:21:12;58.28;;;27.90;;
29352;SDS011;16344;50.364;8.944;2022-12-20T15:23:58;116.20;;;53.67;;
29352;SDS011;16344;50.364;8.944;2022-12-20T15:26:26;139.25;;;67.28;;
29352;SDS011;16344;50.364;8.944;2022-12-20T15:28:53;112.00;;;54.30;;
29352;SDS011;16344;50.364;8.944;2022-12-20T15:31:19;57.28;;;26.73;;
29352;SDS011;16344;50.364;8.944;2022-12-20T15:33:46;58.35;;;25.92;;
29352;SDS011;16344;50.364;8.944;2022-12-20T15:36:19;56.60;;;25.38;;
29352;SDS011;16344;50.364;8.944;2022-12-20T15:38:46;55.92;;;25.30;;
29352;SDS011;16344;50.364;8.944;2022-12-20T15:41:16;51.67;;;25.33;;
29352;SDS011;16344;50.364;8.944;2022-12-20T15:43:51;45.78;;;25.10;;
29352;SDS011;16344;50.364;8.944;2022-12-20T15:46:20;49.00;;;25.27;;
29352;SDS011;16344;50.364;8.944;2022-12-20T15:48:45;63.40;;;30.25;;
29352;SDS011;16344;50.364;8.944;2022-12-20T15:51:13;172.80;;;68.88;;
29352;SDS011;16344;50.364;8.944;2022-12-20T15:53:42;128.55;;;63.88;;
29352;SDS011;16344;50.364;8.944;2022-12-20T15:56:13;61.92;;;29.73;;
29352;SDS011;16344;50.364;8.944;2022-12-20T15:58:44;86.78;;;35.67;;
29352;SDS011;16344;50.364;8.944;2022-12-20T16:01:11;86.55;;;39.35;;
29352;SDS011;16344;50.364;8.944;2022-12-20T16:03:41;155.55;;;56.38;;
29352;SDS011;16344;50.364;8.944;2022-12-20T16:06:09;385.40;;;116.90;;
29352;SDS011;16344;50.364;8.944;2022-12-20T16:08:36;172.25;;;58.90;;
29352;SDS011;16344;50.364;8.944;2022-12-20T16:11:03;175.18;;;68.32;;
29352;SDS011;16344;50.364;8.944;2022-12-20T16:13:33;107.25;;;48.72;;
29352;SDS011;16344;50.364;8.944;2022-12-20T16:15:59;80.07;;;39.95;;
29352;SDS011;16344;50.364;8.944;2022-12-20T16:18:25;68.70;;;31.08;;
29352;SDS011;16344;50.364;8.944;2022-12-20T16:20:50;42.72;;;22.38;;
29352;SDS011;16344;50.364;8.944;2022-12-20T16:23:17;63.00;;;30.70;;
29352;SDS011;16344;50.364;8.944;2022-12-20T16:25:46;69.00;;;33.70;;
29352;SDS011;16344;50.364;8.944;2022-12-20T16:28:12;108.97;;;48.00;;
29352;SDS011;16344;50.364;8.944;2022-12-20T16:30:38;62.38;;;32.65;;
29352;SDS011;16344;50.364;8.944;2022-12-20T16:33:04;64.90;;;31.95;;
29352;SDS011;16344;50.364;8.944;2022-12-20T16:35:31;51.45;;;25.02;;